Time;durP1;ratioP1;P1;durP2;ratioP2;P2;SDS_P1;SDS_P2;PMS_P1;PMS_P2;Temp;Humidity;BMP_temperature;BMP_pressure;BME280_temperature;BME280_humidity;BME280_pressure;Samples;Min_cycle;Max_cycle;Signal;HPM_P1;HPM_P2
2023/03/25 00:00:16;;;;;;;;;;;;;;;11.70;97.61;99570.88;5049029;28;20012;-59
2023/03/25 00:02:43;;;;;;;;;;;;;;;11.64;100.00;99570.28;5068399;28;19949;-59
2023/03/25 00:05:09;;;;;;;;;;;;;;;11.71;100.00;99574.44;5063737;28;20007;-59
2023/03/25 00:07:35;;;;;;;;;;;;;;;11.69;100.00;99565.63;5068933;28;20038;-59
2023/03/25 00:10:01;;;;;;;;;;;;;;;11.71;100.00;99566.44;5065059;28;19995;-59
2023/03/25 00:12:26;;;;;;;;;;;;;;;11.60;100.00;99566.84;5069063;28;20007;-59
2023/03/25 00:14:54;;;;;;;;;;;;;;;11.63;100.00;99569.41;5069775;28;19956;-59
2023/03/25 00:17:20;;;;;;;;;;;;;;;11.58;100.00;99575.88;5051974;28;19974;-59
2023/03/25 00:19:49;;;;;;;;;;;;;;;11.53;98.67;99570.72;5061570;28;20374;-59
2023/03/25 00:22:14;;;;;;;;;;;;;;;11.58;97.08;99567.88;5069512;28;19929;-59
2023/03/25 00:24:40;;;;;;;;;;;;;;;11.61;96.25;99560.59;5069518;28;19979;-58
2023/03/25 00:27:05;;;;;;;;;;;;;;;11.62;94.90;99562.34;5069126;28;19955;-58
2023/03/25 00:29:30;;;;;;;;;;;;;;;11.58;94.05;99549.22;5065985;28;20407;-59
2023/03/25 00:31:55;;;;;;;;;;;;;;;11.62;92.57;99556.13;5069132;28;19923;-59
2023/03/25 00:34:21;;;;;;;;;;;;;;;11.59;90.29;99554.47;5061264;28;19962;-59
2023/03/25 00:36:46;;;;;;;;;;;;;;;11.66;89.62;99552.44;5049714;28;20010;-58
2023/03/25 00:39:12;;;;;;;;;;;;;;;11.70;88.81;99546.03;5049816;28;20024;-59
2023/03/25 00:41:40;;;;;;;;;;;;;;;11.66;88.41;99560.44;5033706;28;19927;-59
2023/03/25 00:44:06;;;;;;;;;;;;;;;11.67;88.63;99556.81;5067114;28;19976;-59
2023/03/25 00:46:32;;;;;;;;;;;;;;;11.75;88.80;99549.34;5069103;28;19947;-58
2023/03/25 00:48:59;;;;;;;;;;;;;;;11.80;89.15;99544.69;5063991;28;21558;-59
2023/03/25 00:51:25;;;;;;;;;;;;;;;11.76;88.03;99540.44;5049414;28;19989;-59
2023/03/25 00:53:55;;;;;;;;;;;;;;;11.68;87.04;99534.56;5065812;28;19959;-58
2023/03/25 00:56:21;;;;;;;;;;;;;;;11.71;87.47;99523.81;5069559;28;19995;-59
2023/03/25 00:58:46;;;;;;;;;;;;;;;11.69;86.63;99523.00;5057788;28;19972;-59
2023/03/25 01:01:12;;;;;;;;;;;;;;;11.67;85.56;99527.53;5048242;28;19960;-58
2023/03/25 01:03:38;;;;;;;;;;;;;;;11.73;85.21;99527.25;5052594;28;19927;-57
2023/03/25 01:06:14;;;;;;;;;;;;;;;11.73;83.79;99516.56;5069065;28;19992;-58
2023/03/25 01:08:40;;;;;;;;;;;;;;;11.74;82.71;99518.34;5071487;28;19938;-58
2023/03/25 01:11:07;;;;;;;;;;;;;;;11.76;82.83;99511.13;5071898;28;20050;-58
2023/03/25 01:13:32;;;;;;;;;;;;;;;11.80;83.04;99502.94;5064966;28;19989;-59
2023/03/25 01:15:57;;;;;;;;;;;;;;;11.82;82.90;99508.19;5059524;28;19973;-58
2023/03/25 01:18:22;;;;;;;;;;;;;;;11.86;83.63;99501.78;5070532;28;19926;-58
2023/03/25 01:20:48;;;;;;;;;;;;;;;11.88;83.47;99515.88;5054313;28;19934;-59
2023/03/25 01:23:13;;;;;;;;;;;;;;;11.90;83.48;99514.03;5052165;28;19923;-58
2023/03/25 01:25:39;;;;;;;;;;;;;;;11.88;83.29;99513.22;5054942;28;20287;-59
2023/03/25 01:28:05;;;;;;;;;;;;;;;11.91;84.25;99507.75;5052389;28;20046;-58
2023/03/25 01:30:30;;;;;;;;;;;;;;;11.96;84.15;99508.41;5052817;28;19916;-58
2023/03/25 01:32:55;;;;;;;;;;;;;;;11.97;84.98;99526.16;5052210;28;19927;-58
2023/03/25 01:35:21;;;;;;;;;;;;;;;11.98;85.92;99559.00;5054722;28;19940;-59
2023/03/25 01:37:47;;;;;;;;;;;;;;;11.89;87.99;99611.75;5051911;28;19943;-59
2023/03/25 01:40:19;;;;;;;;;;;;;;;11.76;91.50;99607.06;5065357;28;19932;-59
2023/03/25 01:42:45;;;;;;;;;;;;;;;11.09;94.79;99608.13;5073509;28;20029;-61
2023/03/25 01:45:19;;;;;;;;;;;;;;;10.68;95.71;99598.28;5067150;28;20020;-62
2023/03/25 01:47:47;;;;;;;;;;;;;;;10.45;98.37;99605.41;5070180;28;19959;-61
2023/03/25 01:50:13;;;;;;;;;;;;;;;10.36;100.00;99599.56;5072124;28;20391;-60
2023/03/25 01:52:40;;;;;;;;;;;;;;;10.31;100.00;99601.53;5054326;28;19932;-61
2023/03/25 01:55:05;;;;;;;;;;;;;;;10.15;100.00;99601.22;5052326;28;19960;-61
2023/03/25 01:57:31;;;;;;;;;;;;;;;10.04;100.00;99570.63;5052707;28;19916;-60
2023/03/25 01:59:56;;;;;;;;;;;;;;;9.91;100.00;99566.72;5062216;28;19983;-60
2023/03/25 02:02:35;;;;;;;;;;;;;;;9.97;100.00;99563.81;5069861;28;20424;-60
2023/03/25 02:05:09;;;;;;;;;;;;;;;9.93;100.00;99567.53;5071391;28;20414;-60
2023/03/25 02:07:36;;;;;;;;;;;;;;;9.95;100.00;99555.91;5061911;28;19956;-60
2023/03/25 02:10:05;;;;;;;;;;;;;;;9.99;100.00;99560.19;5033565;28;19934;-60
2023/03/25 02:12:31;;;;;;;;;;;;;;;9.97;100.00;99543.44;5052900;28;20060;-59
2023/03/25 02:14:57;;;;;;;;;;;;;;;10.04;100.00;99547.59;5051234;28;19947;-59
2023/03/25 02:17:22;;;;;;;;;;;;;;;10.06;100.00;99548.41;5065194;28;19934;-60
2023/03/25 02:20:07;;;;;;;;;;;;;;;10.09;100.00;99548.31;5061066;28;19940;-59
2023/03/25 02:22:42;;;;;;;;;;;;;;;10.09;100.00;99536.81;5058408;28;19936;-59
2023/03/25 02:25:18;;;;;;;;;;;;;;;10.05;100.00;99530.72;5069101;28;19970;-59
2023/03/25 02:27:44;;;;;;;;;;;;;;;10.03;100.00;99526.41;5066588;28;19930;-59
2023/03/25 02:30:29;;;;;;;;;;;;;;;10.08;100.00;99529.78;5050687;28;19932;-59
2023/03/25 02:33:00;;;;;;;;;;;;;;;10.16;100.00;99533.88;5067713;28;19940;-59
2023/03/25 02:35:37;;;;;;;;;;;;;;;10.18;100.00;99542.66;5070763;28;19929;-59
2023/03/25 02:38:05;;;;;;;;;;;;;;;10.19;99.08;99560.34;5056618;28;19988;-59
2023/03/25 02:40:57;;;;;;;;;;;;;;;10.19;98.21;99555.03;5054217;28;20604;-59
2023/03/25 02:43:28;;;;;;;;;;;;;;;10.20;97.52;99563.84;5028539;28;19913;-59
2023/03/25 02:45:56;;;;;;;;;;;;;;;10.18;96.08;99553.28;5063923;28;20474;-59
2023/03/25 02:48:43;;;;;;;;;;;;;;;10.23;96.11;99571.72;5042260;28;20328;-59
2023/03/25 02:51:13;;;;;;;;;;;;;;;10.25;96.34;99570.72;5034482;28;19946;-59
2023/03/25 02:53:41;;;;;;;;;;;;;;;10.27;95.61;99568.88;5031633;28;19947;-59
2023/03/25 02:56:09;;;;;;;;;;;;;;;10.29;96.58;99577.66;5048971;28;19928;-59
2023/03/25 02:58:37;;;;;;;;;;;;;;;10.30;96.00;99566.09;5049516;28;20337;-59
2023/03/25 03:01:02;;;;;;;;;;;;;;;10.32;96.51;99571.34;5051030;28;20012;-59
2023/03/25 03:03:27;;;;;;;;;;;;;;;10.31;94.77;99559.84;5050867;28;19994;-59
2023/03/25 03:05:56;;;;;;;;;;;;;;;10.30;95.32;99574.06;5047261;28;20434;-59
2023/03/25 03:08:40;;;;;;;;;;;;;;;10.33;94.12;99573.94;5050616;28;20355;-59
2023/03/25 03:11:20;;;;;;;;;;;;;;;10.37;94.30;99572.94;5044908;28;19927;-58
2023/03/25 03:14:12;;;;;;;;;;;;;;;10.43;94.41;99574.47;5030452;28;20040;-59
2023/03/25 03:16:57;;;;;;;;;;;;;;;10.37;95.21;99575.59;5039374;28;20037;-59
2023/03/25 03:19:22;;;;;;;;;;;;;;;10.22;95.37;99570.84;5045970;28;20623;-59
2023/03/25 03:21:59;;;;;;;;;;;;;;;10.25;96.12;99568.06;5049626;28;19973;-59
2023/03/25 03:24:31;;;;;;;;;;;;;;;10.28;95.86;99577.75;5049575;28;19932;-59
2023/03/25 03:26:59;;;;;;;;;;;;;;;10.27;96.16;99574.19;5049131;28;19923;-59
2023/03/25 03:29:37;;;;;;;;;;;;;;;10.26;96.86;99577.75;5045992;28;20314;-59
2023/03/25 03:32:08;;;;;;;;;;;;;;;10.38;96.25;99571.09;5048132;28;19933;-59
2023/03/25 03:34:43;;;;;;;;;;;;;;;10.40;96.74;99564.81;5040402;28;19955;-59
2023/03/25 03:37:11;;;;;;;;;;;;;;;10.44;96.60;99576.22;5030525;28;19934;-60
2023/03/25 03:39:37;;;;;;;;;;;;;;;10.37;97.25;99580.03;5041219;28;20029;-59
2023/03/25 03:42:07;;;;;;;;;;;;;;;10.37;96.40;99574.72;5049497;28;19929;-59
2023/03/25 03:44:34;;;;;;;;;;;;;;;10.40;96.40;99583.44;5047457;28;20283;-59
2023/03/25 03:47:06;;;;;;;;;;;;;;;10.43;95.19;99585.97;5053393;28;20021;-60
2023/03/25 03:49:39;;;;;;;;;;;;;;;10.51;95.64;99586.53;5060478;28;19945;-59
2023/03/25 03:52:08;;;;;;;;;;;;;;;10.52;95.12;99601.59;5049918;28;20323;-60
2023/03/25 03:54:36;;;;;;;;;;;;;;;10.49;95.36;99604.34;5051808;28;19952;-59
2023/03/25 03:57:06;;;;;;;;;;;;;;;10.63;95.18;99601.13;5050045;28;20362;-60
2023/03/25 03:59:40;;;;;;;;;;;;;;;10.63;95.23;99606.47;5049715;28;19928;-60
2023/03/25 04:02:11;;;;;;;;;;;;;;;10.63;94.75;99604.69;5052357;28;20666;-59
2023/03/25 04:04:37;;;;;;;;;;;;;;;10.60;94.83;99603.94;5054279;28;20307;-60
2023/03/25 04:07:05;;;;;;;;;;;;;;;10.60;93.81;99610.13;5063567;28;19943;-59
2023/03/25 04:09:39;;;;;;;;;;;;;;;10.67;93.86;99617.84;5049630;28;20024;-59
2023/03/25 04:12:16;;;;;;;;;;;;;;;10.64;93.12;99617.03;5049605;28;20304;-59
2023/03/25 04:14:42;;;;;;;;;;;;;;;10.64;92.52;99610.88;5052149;28;20019;-59
2023/03/25 04:17:07;;;;;;;;;;;;;;;10.66;93.19;99609.00;5044357;28;19966;-59
2023/03/25 04:19:33;;;;;;;;;;;;;;;10.63;92.99;99604.69;5059089;28;19935;-60
2023/03/25 04:22:00;;;;;;;;;;;;;;;10.60;93.37;99599.47;5049317;28;20379;-59
2023/03/25 04:24:30;;;;;;;;;;;;;;;10.60;93.07;99599.47;5049636;28;19936;-58
2023/03/25 04:27:02;;;;;;;;;;;;;;;10.59;92.90;99597.72;5049211;28;19917;-59
2023/03/25 04:29:27;;;;;;;;;;;;;;;10.53;93.55;99597.97;5048628;28;20020;-59
2023/03/25 04:31:55;;;;;;;;;;;;;;;10.61;92.80;99587.91;5051908;28;20003;-59
2023/03/25 04:34:20;;;;;;;;;;;;;;;10.66;93.01;99592.19;5049265;28;20105;-59
2023/03/25 04:36:48;;;;;;;;;;;;;;;10.64;92.09;99586.94;5049616;28;20042;-58
2023/03/25 04:39:16;;;;;;;;;;;;;;;10.66;90.77;99597.50;5071206;28;19939;-59
2023/03/25 04:41:42;;;;;;;;;;;;;;;10.73;91.40;99599.84;5055797;28;19996;-59
2023/03/25 04:44:08;;;;;;;;;;;;;;;10.80;91.46;99595.16;5053300;28;19917;-59
2023/03/25 04:46:35;;;;;;;;;;;;;;;10.78;89.74;99591.69;5055283;28;19917;-59
2023/03/25 04:49:02;;;;;;;;;;;;;;;10.80;89.85;99595.16;5053031;28;19927;-59
2023/03/25 04:51:29;;;;;;;;;;;;;;;10.79;89.76;99590.78;5062082;28;19937;-59
2023/03/25 04:53:54;;;;;;;;;;;;;;;10.76;90.16;99593.56;5072288;28;19928;-59
2023/03/25 04:56:19;;;;;;;;;;;;;;;10.75;89.70;99592.69;5071063;28;20409;-59
2023/03/25 04:58:45;;;;;;;;;;;;;;;10.75;89.77;99591.81;5054955;28;20463;-58
2023/03/25 05:01:18;;;;;;;;;;;;;;;10.78;90.02;99591.69;5052904;28;19931;-57
2023/03/25 05:03:43;;;;;;;;;;;;;;;10.79;89.62;99582.78;5054943;28;19935;-58
2023/03/25 05:06:10;;;;;;;;;;;;;;;10.74;88.92;99598.06;5069610;28;19954;-58
2023/03/25 05:08:35;;;;;;;;;;;;;;;10.73;89.00;99591.00;5070523;28;20000;-59
2023/03/25 05:11:02;;;;;;;;;;;;;;;10.74;90.28;99595.41;5052539;28;19983;-59
2023/03/25 05:13:27;;;;;;;;;;;;;;;10.76;91.11;99604.19;5052376;28;19954;-59
2023/03/25 05:15:52;;;;;;;;;;;;;;;10.71;91.73;99600.84;5057177;28;19931;-59
2023/03/25 05:18:17;;;;;;;;;;;;;;;10.71;92.53;99614.16;5072446;28;20026;-59
2023/03/25 05:20:45;;;;;;;;;;;;;;;10.74;92.88;99611.38;5068589;28;19950;-59
2023/03/25 05:23:14;;;;;;;;;;;;;;;10.67;93.64;99610.75;5072305;28;20308;-59
2023/03/25 05:25:43;;;;;;;;;;;;;;;10.72;93.55;99621.19;5072178;28;19933;-59
2023/03/25 05:28:12;;;;;;;;;;;;;;;10.67;95.39;99617.84;5068631;28;19974;-59
2023/03/25 05:30:40;;;;;;;;;;;;;;;10.61;96.97;99616.28;5072031;28;19925;-60
2023/03/25 05:33:06;;;;;;;;;;;;;;;10.54;97.27;99614.81;5066025;28;19993;-59
2023/03/25 05:35:31;;;;;;;;;;;;;;;10.53;97.80;99613.06;5051842;28;19929;-59
2023/03/25 05:37:56;;;;;;;;;;;;;;;10.47;98.77;99614.19;5052750;28;19957;-59
2023/03/25 05:40:21;;;;;;;;;;;;;;;10.41;98.38;99608.25;5070735;28;20302;-59
2023/03/25 05:42:47;;;;;;;;;;;;;;;10.34;98.57;99614.72;5060066;28;20000;-59
2023/03/25 05:45:14;;;;;;;;;;;;;;;10.31;98.66;99621.00;5050977;28;19951;-59
2023/03/25 05:47:40;;;;;;;;;;;;;;;10.33;98.01;99615.59;5063996;28;19958;-59
2023/03/25 05:50:05;;;;;;;;;;;;;;;10.34;98.02;99618.25;5050731;28;19939;-59
2023/03/25 05:52:30;;;;;;;;;;;;;;;10.29;96.88;99625.53;5051577;28;19927;-59
2023/03/25 05:54:56;;;;;;;;;;;;;;;10.32;97.18;99613.88;5066818;28;19963;-59
2023/03/25 05:57:21;;;;;;;;;;;;;;;10.36;96.14;99620.84;5071538;28;19916;-59
2023/03/25 05:59:46;;;;;;;;;;;;;;;10.38;96.51;99619.84;5069515;28;20287;-59
2023/03/25 06:02:15;;;;;;;;;;;;;;;10.37;96.39;99626.09;5071559;28;19942;-59
2023/03/25 06:04:41;;;;;;;;;;;;;;;10.34;95.15;99622.69;5071371;28;19952;-59
2023/03/25 06:07:18;;;;;;;;;;;;;;;10.37;95.79;99628.75;5057824;28;19940;-59
2023/03/25 06:09:44;;;;;;;;;;;;;;;10.42;94.78;99621.47;5051172;28;19976;-59
2023/03/25 06:12:10;;;;;;;;;;;;;;;10.47;96.07;99624.81;5053629;28;19946;-59
2023/03/25 06:14:36;;;;;;;;;;;;;;;10.40;95.75;99623.31;5051066;28;19959;-59
2023/03/25 06:17:01;;;;;;;;;;;;;;;10.45;96.19;99621.34;5062678;28;19938;-59
2023/03/25 06:19:26;;;;;;;;;;;;;;;10.27;97.71;99622.03;5070008;28;20146;-59
2023/03/25 06:21:52;;;;;;;;;;;;;;;10.23;98.67;99633.69;5060038;28;20434;-59
2023/03/25 06:24:17;;;;;;;;;;;;;;;10.23;98.36;99615.09;5050088;28;19932;-59
2023/03/25 06:26:43;;;;;;;;;;;;;;;10.30;98.11;99634.34;5052151;28;20019;-59
2023/03/25 06:29:08;;;;;;;;;;;;;;;10.31;97.72;99617.47;5050021;28;19932;-60
2023/03/25 06:31:33;;;;;;;;;;;;;;;10.57;97.38;99626.19;5058673;28;20030;-59
2023/03/25 06:34:00;;;;;;;;;;;;;;;11.33;90.93;99620.44;5071107;28;20032;-59
2023/03/25 06:36:26;;;;;;;;;;;;;;;11.24;89.65;99628.78;5062089;28;19933;-60
2023/03/25 06:38:51;;;;;;;;;;;;;;;10.92;90.76;99626.59;5050903;28;20426;-59
2023/03/25 06:41:20;;;;;;;;;;;;;;;10.91;92.22;99611.53;5051695;28;19961;-59
2023/03/25 06:43:46;;;;;;;;;;;;;;;11.07;91.79;99610.84;5068437;28;19945;-59
2023/03/25 06:46:11;;;;;;;;;;;;;;;11.71;88.10;99609.06;5070423;28;20694;-59
2023/03/25 06:48:37;;;;;;;;;;;;;;;11.50;86.14;99605.47;5060452;28;19966;-59
2023/03/25 06:51:02;;;;;;;;;;;;;;;11.46;88.26;99606.56;5050608;28;19983;-59
2023/03/25 06:53:28;;;;;;;;;;;;;;;11.62;90.91;99609.41;5051652;28;19924;-59
2023/03/25 06:55:55;;;;;;;;;;;;;;;12.36;86.63;99604.28;5051107;28;20006;-59
2023/03/25 06:58:20;;;;;;;;;;;;;;;12.72;80.29;99591.88;5050316;28;20006;-59
2023/03/25 07:00:45;;;;;;;;;;;;;;;12.69;80.55;99600.03;5062628;28;20045;-59
2023/03/25 07:03:11;;;;;;;;;;;;;;;13.48;76.71;99605.00;5069746;28;19934;-59
2023/03/25 07:05:36;;;;;;;;;;;;;;;13.69;75.01;99601.22;5068070;28;19949;-59
2023/03/25 07:08:01;;;;;;;;;;;;;;;13.70;75.62;99599.44;5050170;28;19937;-59
2023/03/25 07:10:27;;;;;;;;;;;;;;;15.00;70.19;99604.75;5050529;28;20335;-59
2023/03/25 07:12:52;;;;;;;;;;;;;;;14.96;66.72;99603.16;5052924;28;19931;-58
2023/03/25 07:15:17;;;;;;;;;;;;;;;14.35;72.21;99615.56;5050137;28;19957;-59
2023/03/25 07:17:42;;;;;;;;;;;;;;;15.17;69.27;99617.16;5064919;28;19936;-58
2023/03/25 07:20:08;;;;;;;;;;;;;;;15.82;66.17;99612.38;5050233;28;20029;-59
2023/03/25 07:22:34;;;;;;;;;;;;;;;15.86;63.46;99612.19;5050278;28;19969;-58
2023/03/25 07:24:59;;;;;;;;;;;;;;;15.32;65.51;99616.28;5052544;28;19933;-58
2023/03/25 07:27:25;;;;;;;;;;;;;;;14.93;65.96;99613.19;5050244;28;20017;-59
2023/03/25 07:29:50;;;;;;;;;;;;;;;13.86;70.95;99611.06;5051776;28;20449;-58
2023/03/25 07:32:15;;;;;;;;;;;;;;;12.92;76.96;99618.47;5049240;28;19932;-58
2023/03/25 07:34:41;;;;;;;;;;;;;;;12.46;80.39;99600.25;5049174;28;19951;-59
2023/03/25 07:37:07;;;;;;;;;;;;;;;12.07;81.70;99579.88;5051623;28;19937;-58
2023/03/25 07:39:32;;;;;;;;;;;;;;;12.08;83.29;99609.16;5057665;28;19929;-58
2023/03/25 07:41:58;;;;;;;;;;;;;;;11.88;85.11;99606.50;5069612;28;19931;-59
2023/03/25 07:44:23;;;;;;;;;;;;;;;11.81;86.40;99615.72;5069275;28;19982;-59
2023/03/25 07:46:48;;;;;;;;;;;;;;;11.67;88.68;99623.44;5061609;28;19986;-58
2023/03/25 07:49:14;;;;;;;;;;;;;;;11.44;90.94;99618.19;5069533;28;19912;-59
2023/03/25 07:51:40;;;;;;;;;;;;;;;11.14;94.27;99633.63;5058547;28;19935;-59
2023/03/25 07:54:05;;;;;;;;;;;;;;;11.14;95.83;99638.09;5049295;28;19947;-59
2023/03/25 07:56:30;;;;;;;;;;;;;;;11.02;97.68;99634.13;5050366;28;19933;-60
2023/03/25 07:58:56;;;;;;;;;;;;;;;10.94;98.47;99632.72;5066555;28;19931;-59
2023/03/25 08:01:21;;;;;;;;;;;;;;;10.95;100.00;99638.00;5069332;28;19985;-59
2023/03/25 08:03:46;;;;;;;;;;;;;;;10.93;100.00;99634.50;5066172;28;20038;-60
2023/03/25 08:06:11;;;;;;;;;;;;;;;10.95;100.00;99637.13;5069358;28;19970;-60
2023/03/25 08:08:37;;;;;;;;;;;;;;;11.04;100.00;99632.28;5067472;28;19937;-59
2023/03/25 08:11:02;;;;;;;;;;;;;;;11.13;100.00;99633.72;5049316;28;20038;-60
2023/03/25 08:13:28;;;;;;;;;;;;;;;11.20;100.00;99622.72;5053104;28;20003;-59
2023/03/25 08:15:53;;;;;;;;;;;;;;;11.20;100.00;99627.22;5059073;28;20699;-59
2023/03/25 08:18:19;;;;;;;;;;;;;;;11.35;100.00;99634.56;5073654;28;19930;-59
2023/03/25 08:20:44;;;;;;;;;;;;;;;11.40;100.00;99635.25;5070620;28;19935;-59
2023/03/25 08:23:11;;;;;;;;;;;;;;;11.33;100.00;99634.63;5053142;28;19920;-59
2023/03/25 08:25:37;;;;;;;;;;;;;;;11.33;100.00;99623.09;5053444;28;19931;-60
2023/03/25 08:28:03;;;;;;;;;;;;;;;11.46;100.00;99635.84;5055729;28;19943;-59
2023/03/25 08:30:29;;;;;;;;;;;;;;;11.44;100.00;99624.38;5069825;28;19929;-60
2023/03/25 08:32:54;;;;;;;;;;;;;;;11.55;100.00;99623.91;5068880;28;19942;-60
2023/03/25 08:35:20;;;;;;;;;;;;;;;11.58;100.00;99626.47;5053126;28;19956;-59
2023/03/25 08:37:46;;;;;;;;;;;;;;;11.48;100.00;99611.81;5053089;28;19927;-59
2023/03/25 08:40:11;;;;;;;;;;;;;;;11.54;100.00;99614.19;5055738;28;19938;-60
2023/03/25 08:42:37;;;;;;;;;;;;;;;11.48;100.00;99595.84;5052886;28;20495;-59
2023/03/25 08:45:03;;;;;;;;;;;;;;;11.69;100.00;99598.47;5052896;28;19932;-59
2023/03/25 08:47:28;;;;;;;;;;;;;;;11.85;100.00;99596.84;5066881;28;20426;-59
2023/03/25 08:49:54;;;;;;;;;;;;;;;11.91;100.00;99601.91;5068564;28;19938;-59
2023/03/25 08:52:19;;;;;;;;;;;;;;;11.96;100.00;99601.69;5071782;28;19955;-59
2023/03/25 08:54:44;;;;;;;;;;;;;;;12.00;100.00;99605.97;5065926;28;20504;-59
2023/03/25 08:57:10;;;;;;;;;;;;;;;12.14;100.00;99598.19;5072136;28;19961;-59
2023/03/25 08:59:35;;;;;;;;;;;;;;;12.14;99.76;99603.53;5069378;28;20493;-59
2023/03/25 09:02:00;;;;;;;;;;;;;;;12.20;99.04;99599.72;5070785;28;19932;-59
2023/03/25 09:04:25;;;;;;;;;;;;;;;12.34;99.19;99610.63;5069423;28;20305;-59
2023/03/25 09:06:51;;;;;;;;;;;;;;;12.41;98.42;99596.94;5056891;28;20033;-60
2023/03/25 09:09:17;;;;;;;;;;;;;;;12.48;97.23;99593.06;5066475;28;20002;-59
2023/03/25 09:11:42;;;;;;;;;;;;;;;12.58;96.49;99589.03;5052505;28;20010;-59
2023/03/25 09:14:08;;;;;;;;;;;;;;;12.74;96.04;99589.13;5052352;28;19960;-58
2023/03/25 09:16:33;;;;;;;;;;;;;;;13.00;95.27;99575.38;5069545;28;19942;-59
2023/03/25 09:18:59;;;;;;;;;;;;;;;13.01;92.81;99591.34;5072490;28;19925;-59
2023/03/25 09:21:24;;;;;;;;;;;;;;;13.03;90.99;99599.31;5072232;28;19928;-58
2023/03/25 09:23:50;;;;;;;;;;;;;;;13.03;91.27;99597.50;5069304;28;19931;-59
2023/03/25 09:26:15;;;;;;;;;;;;;;;13.05;91.29;99600.97;5052510;28;19924;-59
2023/03/25 09:28:40;;;;;;;;;;;;;;;13.09;90.22;99599.00;5052323;28;19913;-59
2023/03/25 09:31:06;;;;;;;;;;;;;;;13.04;89.60;99599.25;5071890;28;19927;-59
2023/03/25 09:33:32;;;;;;;;;;;;;;;12.98;87.54;99591.47;5066464;28;19947;-59
2023/03/25 09:35:57;;;;;;;;;;;;;;;13.02;88.54;99595.78;5051916;28;19947;-58
2023/03/25 09:38:22;;;;;;;;;;;;;;;13.11;87.48;99605.97;5052372;28;19917;-59
2023/03/25 09:40:48;;;;;;;;;;;;;;;12.97;85.97;99607.56;5053992;28;19925;-59
2023/03/25 09:43:13;;;;;;;;;;;;;;;12.99;86.25;99597.69;5051157;28;19986;-59
2023/03/25 09:45:48;;;;;;;;;;;;;;;13.20;85.54;99602.00;5051625;28;20379;-58
2023/03/25 09:48:31;;;;;;;;;;;;;;;13.20;84.85;99613.56;5065667;28;19966;-59
2023/03/25 09:51:10;;;;;;;;;;;;;;;13.09;83.53;99618.56;5051044;28;19998;-59
2023/03/25 09:54:07;;;;;;;;;;;;;;;13.03;85.88;99628.69;5053306;28;19987;-59
2023/03/25 09:56:35;;;;;;;;;;;;;;;12.79;84.18;99638.69;5036189;28;20397;-59
2023/03/25 09:59:06;;;;;;;;;;;;;;;12.74;84.88;99629.16;5067148;28;20587;-59
2023/03/25 10:01:37;;;;;;;;;;;;;;;13.09;88.00;99639.94;5051678;28;20411;-59
2023/03/25 10:04:18;;;;;;;;;;;;;;;13.53;86.88;99651.06;5066621;28;19951;-59
2023/03/25 10:06:52;;;;;;;;;;;;;;;14.18;85.26;99642.31;5053659;28;20031;-59
2023/03/25 10:09:24;;;;;;;;;;;;;;;14.18;79.96;99639.66;5051341;28;20005;-59
2023/03/25 10:12:09;;;;;;;;;;;;;;;14.16;79.70;99642.41;5062562;28;20042;-59
2023/03/25 10:14:53;;;;;;;;;;;;;;;14.10;81.29;99642.72;5020215;28;20305;-59
2023/03/25 10:17:25;;;;;;;;;;;;;;;13.96;81.07;99655.09;5066761;28;20383;-59
2023/03/25 10:19:53;;;;;;;;;;;;;;;13.86;82.38;99665.41;5071252;28;19938;-59
2023/03/25 10:22:21;;;;;;;;;;;;;;;13.67;79.11;99663.75;5071408;28;20372;-59
2023/03/25 10:24:49;;;;;;;;;;;;;;;13.90;77.01;99650.06;5071424;28;20403;-59
2023/03/25 10:27:22;;;;;;;;;;;;;;;14.31;72.90;99656.81;5057835;28;20706;-59
2023/03/25 10:29:51;;;;;;;;;;;;;;;14.56;72.20;99649.19;5051328;28;19920;-59
2023/03/25 10:32:17;;;;;;;;;;;;;;;14.51;71.29;99648.59;5053669;28;19917;-59
2023/03/25 10:34:48;;;;;;;;;;;;;;;14.53;71.10;99642.19;5050639;28;20598;-59
2023/03/25 10:37:16;;;;;;;;;;;;;;;14.52;69.35;99648.50;5053514;28;20015;-58
2023/03/25 10:39:44;;;;;;;;;;;;;;;14.37;68.10;99645.78;5068502;28;19981;-59
2023/03/25 10:42:17;;;;;;;;;;;;;;;14.33;69.65;99644.22;5070632;28;19930;-59
2023/03/25 10:44:43;;;;;;;;;;;;;;;14.35;67.56;99626.25;5059775;28;19973;-59
2023/03/25 10:47:14;;;;;;;;;;;;;;;14.47;69.46;99628.28;5063299;28;20433;-59
2023/03/25 10:49:40;;;;;;;;;;;;;;;14.49;68.43;99639.75;5069473;28;20004;-59
2023/03/25 10:52:06;;;;;;;;;;;;;;;14.41;67.82;99625.94;5055583;28;19979;-59
2023/03/25 10:54:35;;;;;;;;;;;;;;;14.32;68.22;99629.09;5054757;28;20310;-59
2023/03/25 10:57:08;;;;;;;;;;;;;;;14.19;67.98;99644.03;5052628;28;19920;-59
2023/03/25 10:59:42;;;;;;;;;;;;;;;14.10;72.44;99653.41;5066871;28;19942;-58
2023/03/25 11:02:27;;;;;;;;;;;;;;;14.13;74.36;99639.03;5063882;28;20017;-58
2023/03/25 11:04:54;;;;;;;;;;;;;;;14.93;73.69;99642.66;5058107;28;19961;-59
2023/03/25 11:07:29;;;;;;;;;;;;;;;14.99;69.28;99645.84;5061873;28;19982;-59
2023/03/25 11:10:07;;;;;;;;;;;;;;;14.85;69.27;99653.81;5065718;28;19997;-58
2023/03/25 11:12:32;;;;;;;;;;;;;;;14.70;70.50;99660.00;5069963;28;19938;-59
2023/03/25 11:15:00;;;;;;;;;;;;;;;14.71;70.45;99648.34;5055485;28;19974;-59
2023/03/25 11:17:26;;;;;;;;;;;;;;;14.85;68.70;99647.56;5061471;28;19931;-59
2023/03/25 11:19:51;;;;;;;;;;;;;;;14.90;nan;99650.84;5050037;28;20415;-58
2023/03/25 11:22:16;;;;;;;;;;;;;;;14.88;66.61;99656.31;5052047;28;19936;-58
2023/03/25 11:24:43;;;;;;;;;;;;;;;14.66;65.41;99650.44;5056905;28;20402;-60
2023/03/25 11:27:09;;;;;;;;;;;;;;;14.65;67.21;99656.72;5068503;28;19980;-58
2023/03/25 11:29:35;;;;;;;;;;;;;;;14.72;68.09;99643.84;5067337;28;19944;-59
2023/03/25 11:32:05;;;;;;;;;;;;;;;14.78;67.43;99641.69;5071057;28;19929;-59
2023/03/25 11:34:30;;;;;;;;;;;;;;;14.63;66.89;99658.59;5066650;28;20463;-59
2023/03/25 11:37:00;;;;;;;;;;;;;;;14.55;70.68;99686.75;5061253;28;20001;-59
2023/03/25 11:39:25;;;;;;;;;;;;;;;13.85;75.06;99681.53;5057701;28;20391;-59
2023/03/25 11:41:51;;;;;;;;;;;;;;;13.47;80.16;99683.44;5054052;28;19939;-59
2023/03/25 11:44:25;;;;;;;;;;;;;;;13.26;81.72;99672.94;5068697;28;19917;-59
2023/03/25 11:46:52;;;;;;;;;;;;;;;14.56;84.39;99669.72;5070719;28;20066;-59
2023/03/25 11:49:19;;;;;;;;;;;;;;;15.45;79.72;99671.78;5068393;28;19936;-59
2023/03/25 11:51:44;;;;;;;;;;;;;;;16.53;78.62;99668.84;5052269;28;20025;-59
2023/03/25 11:54:14;;;;;;;;;;;;;;;17.10;70.28;99667.81;5066922;28;20560;-59
2023/03/25 11:56:41;;;;;;;;;;;;;;;17.35;68.19;99665.28;5068215;28;19933;-59
2023/03/25 11:59:08;;;;;;;;;;;;;;;17.26;68.64;99660.50;5070423;28;19955;-59
2023/03/25 12:01:40;;;;;;;;;;;;;;;16.54;68.00;99667.91;5060413;28;19947;-58
2023/03/25 12:04:17;;;;;;;;;;;;;;;16.26;68.62;99673.22;5064878;28;19950;-59
2023/03/25 12:06:56;;;;;;;;;;;;;;;15.73;69.56;99658.50;5067758;28;19934;-58
2023/03/25 12:09:22;;;;;;;;;;;;;;;15.15;69.82;99672.66;5051361;28;19998;-58
2023/03/25 12:12:08;;;;;;;;;;;;;;;14.97;70.10;99674.56;5068878;28;20494;-57
2023/03/25 12:14:33;;;;;;;;;;;;;;;14.84;71.98;99676.19;5065827;28;20046;-58
2023/03/25 12:17:04;;;;;;;;;;;;;;;14.65;71.64;99671.91;5070458;28;20457;-58
2023/03/25 12:19:44;;;;;;;;;;;;;;;14.80;73.61;99671.94;5049666;28;20695;-58
2023/03/25 12:22:15;;;;;;;;;;;;;;;14.89;72.20;99666.06;5063494;28;19935;-58
2023/03/25 12:24:57;;;;;;;;;;;;;;;15.35;74.62;99665.19;5067894;28;20033;-58
2023/03/25 12:27:29;;;;;;;;;;;;;;;15.95;72.60;99651.88;5067437;28;19932;-58
2023/03/25 12:29:57;;;;;;;;;;;;;;;15.88;67.61;99645.13;5068428;28;20298;-58
2023/03/25 12:32:41;;;;;;;;;;;;;;;15.80;69.15;99648.25;5068928;28;19975;-58
2023/03/25 12:35:16;;;;;;;;;;;;;;;16.35;67.30;99633.25;5064825;28;19920;-57
2023/03/25 12:37:41;;;;;;;;;;;;;;;17.32;63.69;99638.59;5069502;28;19927;-58
2023/03/25 12:40:26;;;;;;;;;;;;;;;18.26;61.22;99624.97;5065900;28;19931;-58
2023/03/25 12:42:54;;;;;;;;;;;;;;;18.67;55.05;99600.50;5069693;28;19929;-58
2023/03/25 12:45:29;;;;;;;;;;;;;;;19.13;53.18;99624.00;5065761;28;19942;-58
2023/03/25 12:47:55;;;;;;;;;;;;;;;19.25;53.21;99630.31;5059185;28;19965;-58
2023/03/25 12:50:24;;;;;;;;;;;;;;;18.41;52.09;99631.13;5062722;28;19923;-59